sensor_id;sensor_type;location;lat;lon;timestamp;P1;durP1;ratioP1;P2;durP2;ratioP2
4430;SDS011;2228;48.140;11.488;2022-12-13T00:42:20;21.13;;;10.73;;
4430;SDS011;2228;48.140;11.488;2022-12-13T00:44:47;20.80;;;10.57;;
4430;SDS011;2228;48.140;11.488;2022-12-13T00:47:14;20.73;;;11.07;;
4430;SDS011;2228;48.140;11.488;2022-12-13T00:49:43;22.95;;;11.05;;
4430;SDS011;2228;48.140;11.488;2022-12-13T00:52:10;23.33;;;11.80;;
4430;SDS011;2228;48.140;11.488;2022-12-13T00:54:37;20.52;;;10.88;;
4430;SDS011;2228;48.140;11.488;2022-12-13T00:57:04;27.02;;;13.48;;
4430;SDS011;2228;48.140;11.488;2022-12-13T00:59:32;23.05;;;11.43;;
4430;SDS011;2228;48.140;11.488;2022-12-13T01:01:59;24.03;;;12.33;;
4430;SDS011;2228;48.140;11.488;2022-12-13T01:04:26;20.70;;;11.20;;
4430;SDS011;2228;48.140;11.488;2022-12-13T01:06:53;21.58;;;10.73;;
4430;SDS011;2228;48.140;11.488;2022-12-13T01:09:21;21.75;;;11.18;;
4430;SDS011;2228;48.140;11.488;2022-12-13T01:11:54;16.92;;;9.88;;
4430;SDS011;2228;48.140;11.488;2022-12-13T01:14:23;20.63;;;10.23;;
4430;SDS011;2228;48.140;11.488;2022-12-13T01:16:52;21.10;;;10.80;;
4430;SDS011;2228;48.140;11.488;2022-12-13T01:19:20;17.85;;;10.10;;
4430;SDS011;2228;48.140;11.488;2022-12-13T01:21:47;17.55;;;9.75;;
4430;SDS011;2228;48.140;11.488;2022-12-13T01:24:14;20.58;;;9.82;;
4430;SDS011;2228;48.140;11.488;2022-12-13T01:26:45;18.92;;;9.68;;
4430;SDS011;2228;48.140;11.488;2022-12-13T01:29:12;16.00;;;9.70;;
4430;SDS011;2228;48.140;11.488;2022-12-13T01:31:39;17.42;;;9.85;;
4430;SDS011;2228;48.140;11.488;2022-12-13T01:34:07;16.73;;;9.48;;
4430;SDS011;2228;48.140;11.488;2022-12-13T01:36:36;16.03;;;9.40;;
4430;SDS011;2228;48.140;11.488;2022-12-13T01:39:03;14.85;;;9.02;;
4430;SDS011;2228;48.140;11.488;2022-12-13T01:41:30;18.95;;;10.15;;
4430;SDS011;2228;48.140;11.488;2022-12-13T01:43:59;16.65;;;9.23;;
4430;SDS011;2228;48.140;11.488;2022-12-13T01:46:28;17.55;;;8.82;;
4430;SDS011;2228;48.140;11.488;2022-12-13T01:48:58;15.73;;;8.70;;
4430;SDS011;2228;48.140;11.488;2022-12-13T01:51:33;21.38;;;10.10;;
4430;SDS011;2228;48.140;11.488;2022-12-13T01:54:02;16.50;;;9.43;;
4430;SDS011;2228;48.140;11.488;2022-12-13T01:56:33;15.02;;;9.07;;
4430;SDS011;2228;48.140;11.488;2022-12-13T01:59:03;18.77;;;9.88;;
4430;SDS011;2228;48.140;11.488;2022-12-13T02:01:33;20.02;;;9.70;;
4430;SDS011;2228;48.140;11.488;2022-12-13T02:04:01;18.58;;;10.02;;
4430;SDS011;2228;48.140;11.488;2022-12-13T02:06:29;22.73;;;11.93;;
4430;SDS011;2228;48.140;11.488;2022-12-13T02:09:01;22.25;;;10.60;;
4430;SDS011;2228;48.140;11.488;2022-12-13T02:11:30;21.05;;;10.60;;
4430;SDS011;2228;48.140;11.488;2022-12-13T02:13:58;19.13;;;9.90;;
4430;SDS011;2228;48.140;11.488;2022-12-13T02:16:34;17.67;;;10.80;;
4430;SDS011;2228;48.140;11.488;2022-12-13T02:19:32;22.17;;;10.95;;
4430;SDS011;2228;48.140;11.488;2022-12-13T02:22:30;24.10;;;12.17;;
4430;SDS011;2228;48.140;11.488;2022-12-13T02:25:28;20.27;;;11.43;;
4430;SDS011;2228;48.140;11.488;2022-12-13T02:28:16;24.40;;;11.93;;
4430;SDS011;2228;48.140;11.488;2022-12-13T02:30:59;20.03;;;11.33;;
4430;SDS011;2228;48.140;11.488;2022-12-13T02:33:35;23.95;;;11.60;;
4430;SDS011;2228;48.140;11.488;2022-12-13T02:36:11;21.58;;;11.13;;
4430;SDS011;2228;48.140;11.488;2022-12-13T02:38:47;23.65;;;12.20;;
4430;SDS011;2228;48.140;11.488;2022-12-13T02:41:19;24.70;;;13.00;;
4430;SDS011;2228;48.140;11.488;2022-12-13T02:43:52;23.30;;;12.77;;
4430;SDS011;2228;48.140;11.488;2022-12-13T02:46:26;25.95;;;12.32;;
4430;SDS011;2228;48.140;11.488;2022-12-13T02:48:55;22.65;;;11.10;;
4430;SDS011;2228;48.140;11.488;2022-12-13T02:51:24;22.08;;;11.73;;
4430;SDS011;2228;48.140;11.488;2022-12-13T02:53:52;22.52;;;11.00;;
4430;SDS011;2228;48.140;11.488;2022-12-13T02:56:19;22.63;;;11.32;;
4430;SDS011;2228;48.140;11.488;2022-12-13T02:58:48;20.33;;;10.73;;
4430;SDS011;2228;48.140;11.488;2022-12-13T03:01:26;21.67;;;11.02;;
4430;SDS011;2228;48.140;11.488;2022-12-13T03:04:05;22.92;;;11.73;;
4430;SDS011;2228;48.140;11.488;2022-12-13T03:06:45;22.30;;;11.60;;
4430;SDS011;2228;48.140;11.488;2022-12-13T03:09:21;27.17;;;12.73;;
4430;SDS011;2228;48.140;11.488;2022-12-13T03:12:15;23.43;;;13.30;;
4430;SDS011;2228;48.140;11.488;2022-12-13T03:15:08;25.40;;;13.40;;
4430;SDS011;2228;48.140;11.488;2022-12-13T03:17:43;23.17;;;12.70;;
4430;SDS011;2228;48.140;11.488;2022-12-13T03:20:15;25.70;;;14.63;;
4430;SDS011;2228;48.140;11.488;2022-12-13T03:22:47;33.45;;;15.30;;
4430;SDS011;2228;48.140;11.488;2022-12-13T03:25:14;28.27;;;14.40;;
4430;SDS011;2228;48.140;11.488;2022-12-13T03:27:41;29.73;;;15.63;;
4430;SDS011;2228;48.140;11.488;2022-12-13T03:30:08;25.80;;;14.65;;
4430;SDS011;2228;48.140;11.488;2022-12-13T03:32:36;29.90;;;14.45;;
4430;SDS011;2228;48.140;11.488;2022-12-13T03:35:05;25.05;;;14.02;;
4430;SDS011;2228;48.140;11.488;2022-12-13T03:37:33;32.45;;;15.70;;
4430;SDS011;2228;48.140;11.488;2022-12-13T03:40:00;26.42;;;14.90;;
4430;SDS011;2228;48.140;11.488;2022-12-13T03:42:32;26.98;;;13.15;;
4430;SDS011;2228;48.140;11.488;2022-12-13T03:44:59;24.27;;;13.73;;
4430;SDS011;2228;48.140;11.488;2022-12-13T03:47:26;20.40;;;11.98;;
4430;SDS011;2228;48.140;11.488;2022-12-13T03:49:53;24.00;;;11.80;;
4430;SDS011;2228;48.140;11.488;2022-12-13T03:52:22;23.75;;;11.80;;
4430;SDS011;2228;48.140;11.488;2022-12-13T03:54:49;24.10;;;13.40;;
4430;SDS011;2228;48.140;11.488;2022-12-13T03:57:16;25.35;;;13.55;;
4430;SDS011;2228;48.140;11.488;2022-12-13T03:59:43;23.95;;;14.02;;
4430;SDS011;2228;48.140;11.488;2022-12-13T04:02:10;24.95;;;13.40;;
4430;SDS011;2228;48.140;11.488;2022-12-13T04:04:37;26.80;;;12.95;;
4430;SDS011;2228;48.140;11.488;2022-12-13T04:07:04;21.67;;;12.40;;
4430;SDS011;2228;48.140;11.488;2022-12-13T04:09:32;22.40;;;11.45;;
4430;SDS011;2228;48.140;11.488;2022-12-13T04:11:59;24.40;;;12.70;;
4430;SDS011;2228;48.140;11.488;2022-12-13T04:14:40;23.73;;;12.30;;
4430;SDS011;2228;48.140;11.488;2022-12-13T04:17:07;25.95;;;13.18;;
4430;SDS011;2228;48.140;11.488;2022-12-13T04:19:34;20.25;;;11.60;;
4430;SDS011;2228;48.140;11.488;2022-12-13T04:22:01;23.52;;;11.80;;
4430;SDS011;2228;48.140;11.488;2022-12-13T04:24:28;20.88;;;11.05;;
4430;SDS011;2228;48.140;11.488;2022-12-13T04:26:57;21.67;;;11.73;;
4430;SDS011;2228;48.140;11.488;2022-12-13T04:29:24;23.55;;;12.32;;
4430;SDS011;2228;48.140;11.488;2022-12-13T04:31:51;21.97;;;12.20;;
4430;SDS011;2228;48.140;11.488;2022-12-13T04:34:18;20.33;;;11.00;;
4430;SDS011;2228;48.140;11.488;2022-12-13T04:36:45;22.85;;;12.00;;
4430;SDS011;2228;48.140;11.488;2022-12-13T04:39:12;23.30;;;12.50;;
4430;SDS011;2228;48.140;11.488;2022-12-13T04:41:40;21.95;;;12.20;;
4430;SDS011;2228;48.140;11.488;2022-12-13T04:44:08;20.25;;;11.20;;
4430;SDS011;2228;48.140;11.488;2022-12-13T04:46:36;21.53;;;11.40;;
4430;SDS011;2228;48.140;11.488;2022-12-13T04:49:03;20.30;;;11.27;;
4430;SDS011;2228;48.140;11.488;2022-12-13T04:51:30;21.33;;;11.43;;
4430;SDS011;2228;48.140;11.488;2022-12-13T04:53:57;22.20;;;11.63;;
4430;SDS011;2228;48.140;11.488;2022-12-13T04:56:24;17.35;;;10.95;;
4430;SDS011;2228;48.140;11.488;2022-12-13T04:58:51;18.95;;;10.63;;
4430;SDS011;2228;48.140;11.488;2022-12-13T05:01:19;20.77;;;10.33;;
4430;SDS011;2228;48.140;11.488;2022-12-13T05:03:46;20.17;;;11.25;;
4430;SDS011;2228;48.140;11.488;2022-12-13T05:06:14;20.65;;;10.57;;
4430;SDS011;2228;48.140;11.488;2022-12-13T05:08:41;19.15;;;10.20;;
4430;SDS011;2228;48.140;11.488;2022-12-13T05:11:09;24.40;;;10.50;;
4430;SDS011;2228;48.140;11.488;2022-12-13T05:13:37;19.23;;;10.38;;
4430;SDS011;2228;48.140;11.488;2022-12-13T05:16:04;17.30;;;10.00;;
4430;SDS011;2228;48.140;11.488;2022-12-13T05:18:34;17.05;;;9.00;;
4430;SDS011;2228;48.140;11.488;2022-12-13T05:21:02;16.75;;;9.55;;
4430;SDS011;2228;48.140;11.488;2022-12-13T05:23:30;19.13;;;10.20;;
4430;SDS011;2228;48.140;11.488;2022-12-13T05:25:58;20.00;;;10.32;;
4430;SDS011;2228;48.140;11.488;2022-12-13T05:28:26;22.30;;;10.30;;
4430;SDS011;2228;48.140;11.488;2022-12-13T05:30:54;19.17;;;9.90;;
4430;SDS011;2228;48.140;11.488;2022-12-13T05:33:23;16.70;;;9.70;;
4430;SDS011;2228;48.140;11.488;2022-12-13T05:35:52;16.30;;;9.25;;
4430;SDS011;2228;48.140;11.488;2022-12-13T05:38:19;18.48;;;8.77;;
4430;SDS011;2228;48.140;11.488;2022-12-13T05:40:46;15.55;;;9.10;;
4430;SDS011;2228;48.140;11.488;2022-12-13T05:43:13;15.88;;;8.10;;
4430;SDS011;2228;48.140;11.488;2022-12-13T05:45:41;15.35;;;8.63;;
4430;SDS011;2228;48.140;11.488;2022-12-13T05:48:08;14.57;;;8.40;;
4430;SDS011;2228;48.140;11.488;2022-12-13T05:50:35;14.90;;;8.38;;
4430;SDS011;2228;48.140;11.488;2022-12-13T05:53:04;14.77;;;8.60;;
4430;SDS011;2228;48.140;11.488;2022-12-13T05:55:32;17.52;;;9.43;;
4430;SDS011;2228;48.140;11.488;2022-12-13T05:58:00;17.13;;;8.48;;
4430;SDS011;2228;48.140;11.488;2022-12-13T06:00:27;14.70;;;7.85;;
4430;SDS011;2228;48.140;11.488;2022-12-13T06:02:54;17.50;;;8.57;;
4430;SDS011;2228;48.140;11.488;2022-12-13T06:05:21;17.17;;;8.43;;
4430;SDS011;2228;48.140;11.488;2022-12-13T06:07:48;15.85;;;8.55;;
4430;SDS011;2228;48.140;11.488;2022-12-13T06:10:17;17.30;;;9.27;;
4430;SDS011;2228;48.140;11.488;2022-12-13T06:12:44;13.25;;;8.43;;
4430;SDS011;2228;48.140;11.488;2022-12-13T06:15:13;16.27;;;8.68;;
4430;SDS011;2228;48.140;11.488;2022-12-13T06:17:40;15.63;;;8.60;;
4430;SDS011;2228;48.140;11.488;2022-12-13T06:20:07;14.48;;;7.90;;
4430;SDS011;2228;48.140;11.488;2022-12-13T06:22:35;15.20;;;8.52;;
4430;SDS011;2228;48.140;11.488;2022-12-13T06:25:03;14.57;;;7.68;;
4430;SDS011;2228;48.140;11.488;2022-12-13T06:27:32;15.23;;;8.03;;
4430;SDS011;2228;48.140;11.488;2022-12-13T06:30:00;14.65;;;7.95;;
4430;SDS011;2228;48.140;11.488;2022-12-13T06:32:28;11.27;;;7.30;;
4430;SDS011;2228;48.140;11.488;2022-12-13T06:34:55;14.73;;;7.40;;
4430;SDS011;2228;48.140;11.488;2022-12-13T06:37:23;16.40;;;8.00;;
4430;SDS011;2228;48.140;11.488;2022-12-13T06:39:50;16.30;;;8.20;;
4430;SDS011;2228;48.140;11.488;2022-12-13T06:42:18;13.43;;;8.60;;
4430;SDS011;2228;48.140;11.488;2022-12-13T06:44:48;17.65;;;8.88;;
4430;SDS011;2228;48.140;11.488;2022-12-13T06:47:16;17.83;;;8.90;;
4430;SDS011;2228;48.140;11.488;2022-12-13T06:49:43;16.75;;;7.93;;
4430;SDS011;2228;48.140;11.488;2022-12-13T06:52:11;20.17;;;8.95;;
4430;SDS011;2228;48.140;11.488;2022-12-13T06:54:39;15.50;;;8.35;;
4430;SDS011;2228;48.140;11.488;2022-12-13T06:57:06;14.60;;;8.48;;
4430;SDS011;2228;48.140;11.488;2022-12-13T06:59:33;14.68;;;7.90;;
4430;SDS011;2228;48.140;11.488;2022-12-13T07:02:02;15.77;;;7.85;;
4430;SDS011;2228;48.140;11.488;2022-12-13T07:04:29;14.90;;;8.40;;
4430;SDS011;2228;48.140;11.488;2022-12-13T07:06:56;14.10;;;7.45;;
4430;SDS011;2228;48.140;11.488;2022-12-13T07:09:23;16.70;;;8.43;;
4430;SDS011;2228;48.140;11.488;2022-12-13T07:11:50;14.35;;;8.00;;
4430;SDS011;2228;48.140;11.488;2022-12-13T07:14:17;15.95;;;8.00;;
4430;SDS011;2228;48.140;11.488;2022-12-13T07:16:44;14.52;;;8.30;;
4430;SDS011;2228;48.140;11.488;2022-12-13T07:19:12;16.38;;;7.90;;
4430;SDS011;2228;48.140;11.488;2022-12-13T07:21:40;17.48;;;8.98;;
4430;SDS011;2228;48.140;11.488;2022-12-13T07:24:07;15.73;;;8.47;;
4430;SDS011;2228;48.140;11.488;2022-12-13T07:26:34;13.32;;;8.80;;
4430;SDS011;2228;48.140;11.488;2022-12-13T07:29:01;13.73;;;8.45;;
4430;SDS011;2228;48.140;11.488;2022-12-13T07:31:28;17.20;;;8.40;;
4430;SDS011;2228;48.140;11.488;2022-12-13T07:33:55;17.00;;;8.10;;
4430;SDS011;2228;48.140;11.488;2022-12-13T07:36:24;18.80;;;8.50;;
4430;SDS011;2228;48.140;11.488;2022-12-13T07:38:51;16.97;;;8.33;;
4430;SDS011;2228;48.140;11.488;2022-12-13T07:41:19;15.57;;;8.05;;
4430;SDS011;2228;48.140;11.488;2022-12-13T07:43:47;16.35;;;8.77;;
4430;SDS011;2228;48.140;11.488;2022-12-13T07:46:14;24.40;;;9.37;;
4430;SDS011;2228;48.140;11.488;2022-12-13T07:48:41;16.33;;;8.20;;
4430;SDS011;2228;48.140;11.488;2022-12-13T07:51:09;17.45;;;8.95;;
4430;SDS011;2228;48.140;11.488;2022-12-13T07:53:38;17.30;;;9.38;;
4430;SDS011;2228;48.140;11.488;2022-12-13T07:56:07;17.08;;;9.10;;
4430;SDS011;2228;48.140;11.488;2022-12-13T07:58:35;16.05;;;8.93;;
4430;SDS011;2228;48.140;11.488;2022-12-13T08:01:03;16.03;;;9.30;;
4430;SDS011;2228;48.140;11.488;2022-12-13T08:03:32;15.57;;;9.52;;
4430;SDS011;2228;48.140;11.488;2022-12-13T08:05:59;20.70;;;10.90;;
4430;SDS011;2228;48.140;11.488;2022-12-13T08:08:27;19.80;;;9.35;;
4430;SDS011;2228;48.140;11.488;2022-12-13T08:11:00;19.02;;;10.90;;
4430;SDS011;2228;48.140;11.488;2022-12-13T08:13:28;18.43;;;9.60;;
4430;SDS011;2228;48.140;11.488;2022-12-13T08:15:58;18.10;;;9.35;;
4430;SDS011;2228;48.140;11.488;2022-12-13T08:18:26;20.63;;;10.77;;
4430;SDS011;2228;48.140;11.488;2022-12-13T08:20:56;15.70;;;9.23;;
4430;SDS011;2228;48.140;11.488;2022-12-13T08:23:24;17.88;;;9.05;;
4430;SDS011;2228;48.140;11.488;2022-12-13T08:25:52;22.20;;;10.23;;
4430;SDS011;2228;48.140;11.488;2022-12-13T08:28:22;21.08;;;10.50;;
4430;SDS011;2228;48.140;11.488;2022-12-13T08:30:49;21.63;;;11.48;;
4430;SDS011;2228;48.140;11.488;2022-12-13T08:33:17;21.60;;;10.98;;
4430;SDS011;2228;48.140;11.488;2022-12-13T08:35:44;18.45;;;10.10;;
4430;SDS011;2228;48.140;11.488;2022-12-13T08:38:12;23.10;;;11.48;;
4430;SDS011;2228;48.140;11.488;2022-12-13T08:40:39;22.52;;;11.48;;
4430;SDS011;2228;48.140;11.488;2022-12-13T08:43:06;25.98;;;12.25;;
4430;SDS011;2228;48.140;11.488;2022-12-13T08:45:35;35.75;;;11.85;;
4430;SDS011;2228;48.140;11.488;2022-12-13T08:48:02;18.67;;;10.82;;
4430;SDS011;2228;48.140;11.488;2022-12-13T08:50:29;21.33;;;10.80;;
4430;SDS011;2228;48.140;11.488;2022-12-13T08:52:57;23.85;;;10.75;;
4430;SDS011;2228;48.140;11.488;2022-12-13T08:55:24;17.83;;;10.13;;
4430;SDS011;2228;48.140;11.488;2022-12-13T08:57:51;20.20;;;9.73;;
4430;SDS011;2228;48.140;11.488;2022-12-13T09:00:18;17.33;;;10.00;;
4430;SDS011;2228;48.140;11.488;2022-12-13T09:02:47;19.73;;;10.10;;
4430;SDS011;2228;48.140;11.488;2022-12-13T09:08:34;18.83;;;9.82;;
4430;SDS011;2228;48.140;11.488;2022-12-13T09:11:02;20.13;;;10.05;;
4430;SDS011;2228;48.140;11.488;2022-12-13T09:13:31;17.45;;;9.38;;
4430;SDS011;2228;48.140;11.488;2022-12-13T09:16:02;19.13;;;9.77;;
4430;SDS011;2228;48.140;11.488;2022-12-13T09:18:31;18.27;;;8.52;;
4430;SDS011;2228;48.140;11.488;2022-12-13T09:20:58;15.77;;;9.57;;
4430;SDS011;2228;48.140;11.488;2022-12-13T09:23:27;18.88;;;9.40;;
4430;SDS011;2228;48.140;11.488;2022-12-13T09:25:54;15.55;;;8.02;;
4430;SDS011;2228;48.140;11.488;2022-12-13T09:28:22;14.68;;;7.65;;
4430;SDS011;2228;48.140;11.488;2022-12-13T09:30:49;15.10;;;7.75;;
4430;SDS011;2228;48.140;11.488;2022-12-13T09:33:16;15.85;;;8.85;;
4430;SDS011;2228;48.140;11.488;2022-12-13T09:35:44;28.15;;;11.60;;
4430;SDS011;2228;48.140;11.488;2022-12-13T09:38:12;22.50;;;9.97;;
4430;SDS011;2228;48.140;11.488;2022-12-13T09:40:40;21.77;;;10.05;;
4430;SDS011;2228;48.140;11.488;2022-12-13T09:43:11;17.38;;;8.10;;
4430;SDS011;2228;48.140;11.488;2022-12-13T09:45:44;16.10;;;9.10;;
4430;SDS011;2228;48.140;11.488;2022-12-13T09:48:12;17.10;;;8.80;;
4430;SDS011;2228;48.140;11.488;2022-12-13T09:50:42;23.88;;;10.88;;
4430;SDS011;2228;48.140;11.488;2022-12-13T09:53:12;20.08;;;9.20;;
4430;SDS011;2228;48.140;11.488;2022-12-13T09:55:42;18.83;;;9.75;;
4430;SDS011;2228;48.140;11.488;2022-12-13T09:58:12;14.20;;;7.70;;
4430;SDS011;2228;48.140;11.488;2022-12-13T10:00:42;15.40;;;7.75;;
4430;SDS011;2228;48.140;11.488;2022-12-13T10:03:12;23.17;;;11.50;;
4430;SDS011;2228;48.140;11.488;2022-12-13T10:05:43;30.45;;;13.30;;
4430;SDS011;2228;48.140;11.488;2022-12-13T10:08:17;25.20;;;11.10;;
4430;SDS011;2228;48.140;11.488;2022-12-13T10:10:48;24.45;;;10.32;;
4430;SDS011;2228;48.140;11.488;2022-12-13T10:13:18;19.17;;;8.90;;
4430;SDS011;2228;48.140;11.488;2022-12-13T10:15:49;27.35;;;9.05;;
4430;SDS011;2228;48.140;11.488;2022-12-13T10:18:21;17.58;;;8.70;;
4430;SDS011;2228;48.140;11.488;2022-12-13T10:20:59;20.05;;;9.15;;
4430;SDS011;2228;48.140;11.488;2022-12-13T10:23:28;20.35;;;9.40;;
4430;SDS011;2228;48.140;11.488;2022-12-13T10:25:55;16.93;;;9.10;;
4430;SDS011;2228;48.140;11.488;2022-12-13T10:28:24;16.23;;;8.30;;
4430;SDS011;2228;48.140;11.488;2022-12-13T10:30:54;30.08;;;11.02;;
4430;SDS011;2228;48.140;11.488;2022-12-13T10:33:23;24.85;;;10.52;;
4430;SDS011;2228;48.140;11.488;2022-12-13T10:36:03;34.75;;;12.40;;
4430;SDS011;2228;48.140;11.488;2022-12-13T10:38:35;23.50;;;11.13;;
4430;SDS011;2228;48.140;11.488;2022-12-13T10:41:24;19.60;;;9.10;;
4430;SDS011;2228;48.140;11.488;2022-12-13T10:46:48;19.33;;;9.90;;
4430;SDS011;2228;48.140;11.488;2022-12-13T10:49:38;20.20;;;9.50;;
4430;SDS011;2228;48.140;11.488;2022-12-13T10:52:20;20.48;;;10.80;;
4430;SDS011;2228;48.140;11.488;2022-12-13T10:54:51;19.80;;;11.10;;
4430;SDS011;2228;48.140;11.488;2022-12-13T10:57:20;18.25;;;9.60;;
4430;SDS011;2228;48.140;11.488;2022-12-13T10:59:48;16.83;;;9.63;;
4430;SDS011;2228;48.140;11.488;2022-12-13T11:02:30;19.52;;;9.95;;
4430;SDS011;2228;48.140;11.488;2022-12-13T11:04:59;25.85;;;11.48;;
4430;SDS011;2228;48.140;11.488;2022-12-13T11:07:48;22.73;;;11.15;;
4430;SDS011;2228;48.140;11.488;2022-12-13T11:10:19;18.10;;;10.83;;
4430;SDS011;2228;48.140;11.488;2022-12-13T11:12:50;24.50;;;10.35;;
4430;SDS011;2228;48.140;11.488;2022-12-13T11:15:26;23.23;;;11.83;;
4430;SDS011;2228;48.140;11.488;2022-12-13T11:17:56;20.98;;;10.43;;
4430;SDS011;2228;48.140;11.488;2022-12-13T11:20:26;17.73;;;9.75;;
4430;SDS011;2228;48.140;11.488;2022-12-13T11:23:01;17.95;;;9.95;;
4430;SDS011;2228;48.140;11.488;2022-12-13T11:25:32;19.92;;;10.70;;
4430;SDS011;2228;48.140;11.488;2022-12-13T11:28:08;21.95;;;10.23;;
4430;SDS011;2228;48.140;11.488;2022-12-13T11:30:52;22.85;;;10.70;;
4430;SDS011;2228;48.140;11.488;2022-12-13T11:33:28;24.77;;;11.33;;
4430;SDS011;2228;48.140;11.488;2022-12-13T11:36:05;18.27;;;10.40;;
4430;SDS011;2228;48.140;11.488;2022-12-13T11:38:51;22.05;;;11.73;;
4430;SDS011;2228;48.140;11.488;2022-12-13T11:41:27;18.52;;;10.80;;
4430;SDS011;2228;48.140;11.488;2022-12-13T11:44:00;18.80;;;10.10;;
4430;SDS011;2228;48.140;11.488;2022-12-13T11:46:34;20.20;;;10.35;;
4430;SDS011;2228;48.140;11.488;2022-12-13T11:49:08;19.65;;;10.90;;
4430;SDS011;2228;48.140;11.488;2022-12-13T11:51:42;20.48;;;10.80;;
4430;SDS011;2228;48.140;11.488;2022-12-13T11:54:16;21.42;;;9.85;;
4430;SDS011;2228;48.140;11.488;2022-12-13T11:56:49;23.70;;;10.90;;
4430;SDS011;2228;48.140;11.488;2022-12-13T11:59:22;18.98;;;10.88;;
4430;SDS011;2228;48.140;11.488;2022-12-13T12:01:54;21.93;;;10.97;;
4430;SDS011;2228;48.140;11.488;2022-12-13T12:04:28;21.33;;;11.23;;
4430;SDS011;2228;48.140;11.488;2022-12-13T12:07:03;22.00;;;11.20;;
4430;SDS011;2228;48.140;11.488;2022-12-13T12:09:37;21.23;;;10.98;;
4430;SDS011;2228;48.140;11.488;2022-12-13T12:12:10;21.35;;;10.60;;
4430;SDS011;2228;48.140;11.488;2022-12-13T12:14:42;21.83;;;10.57;;
4430;SDS011;2228;48.140;11.488;2022-12-13T12:17:19;22.05;;;11.32;;
4430;SDS011;2228;48.140;11.488;2022-12-13T12:19:51;18.73;;;10.63;;
4430;SDS011;2228;48.140;11.488;2022-12-13T12:22:24;20.63;;;10.00;;
4430;SDS011;2228;48.140;11.488;2022-12-13T12:25:05;21.73;;;10.93;;
4430;SDS011;2228;48.140;11.488;2022-12-13T12:27:50;20.35;;;11.20;;
4430;SDS011;2228;48.140;11.488;2022-12-13T12:30:25;18.42;;;10.23;;
4430;SDS011;2228;48.140;11.488;2022-12-13T12:33:07;18.13;;;9.75;;
4430;SDS011;2228;48.140;11.488;2022-12-13T12:35:54;17.85;;;9.35;;
4430;SDS011;2228;48.140;11.488;2022-12-13T12:38:40;16.15;;;9.40;;
4430;SDS011;2228;48.140;11.488;2022-12-13T12:41:29;18.10;;;9.68;;
4430;SDS011;2228;48.140;11.488;2022-12-13T12:44:03;19.90;;;10.73;;
4430;SDS011;2228;48.140;11.488;2022-12-13T12:46:45;20.45;;;10.88;;
4430;SDS011;2228;48.140;11.488;2022-12-13T12:49:33;17.65;;;9.27;;
4430;SDS011;2228;48.140;11.488;2022-12-13T12:52:27;26.13;;;10.52;;
4430;SDS011;2228;48.140;11.488;2022-12-13T12:55:08;18.08;;;9.30;;
4430;SDS011;2228;48.140;11.488;2022-12-13T12:57:44;19.60;;;10.13;;
4430;SDS011;2228;48.140;11.488;2022-12-13T13:00:21;19.75;;;9.95;;
4430;SDS011;2228;48.140;11.488;2022-12-13T13:02:51;24.70;;;11.40;;
4430;SDS011;2228;48.140;11.488;2022-12-13T13:05:24;25.80;;;13.15;;
4430;SDS011;2228;48.140;11.488;2022-12-13T13:07:56;21.48;;;11.93;;
4430;SDS011;2228;48.140;11.488;2022-12-13T13:10:27;23.95;;;11.82;;
4430;SDS011;2228;48.140;11.488;2022-12-13T13:12:56;21.65;;;11.43;;
4430;SDS011;2228;48.140;11.488;2022-12-13T13:21:32;27.33;;;12.52;;
4430;SDS011;2228;48.140;11.488;2022-12-13T13:24:12;22.70;;;12.30;;
4430;SDS011;2228;48.140;11.488;2022-12-13T13:26:44;27.50;;;12.45;;
4430;SDS011;2228;48.140;11.488;2022-12-13T13:29:33;22.67;;;11.85;;
4430;SDS011;2228;48.140;11.488;2022-12-13T13:34:52;20.63;;;10.40;;
4430;SDS011;2228;48.140;11.488;2022-12-13T13:37:26;25.50;;;11.70;;
4430;SDS011;2228;48.140;11.488;2022-12-13T13:39:55;23.15;;;11.75;;
4430;SDS011;2228;48.140;11.488;2022-12-13T13:42:26;24.15;;;11.30;;
4430;SDS011;2228;48.140;11.488;2022-12-13T13:45:15;21.25;;;10.32;;
4430;SDS011;2228;48.140;11.488;2022-12-13T13:47:53;22.05;;;11.40;;
4430;SDS011;2228;48.140;11.488;2022-12-13T13:50:44;20.50;;;11.15;;
4430;SDS011;2228;48.140;11.488;2022-12-13T13:56:43;22.40;;;11.00;;
4430;SDS011;2228;48.140;11.488;2022-12-13T14:08:41;23.88;;;11.93;;
4430;SDS011;2228;48.140;11.488;2022-12-13T14:11:44;23.07;;;11.50;;
4430;SDS011;2228;48.140;11.488;2022-12-13T14:14:40;24.55;;;11.50;;
4430;SDS011;2228;48.140;11.488;2022-12-13T14:20:34;21.45;;;11.63;;
4430;SDS011;2228;48.140;11.488;2022-12-13T14:23:12;22.27;;;11.10;;
4430;SDS011;2228;48.140;11.488;2022-12-13T14:26:01;21.07;;;10.87;;
4430;SDS011;2228;48.140;11.488;2022-12-13T14:28:45;24.83;;;11.75;;
4430;SDS011;2228;48.140;11.488;2022-12-13T14:31:15;22.17;;;10.60;;
4430;SDS011;2228;48.140;11.488;2022-12-13T14:33:47;23.13;;;11.35;;
4430;SDS011;2228;48.140;11.488;2022-12-13T14:36:17;21.50;;;11.55;;
4430;SDS011;2228;48.140;11.488;2022-12-13T14:38:59;23.63;;;12.23;;
4430;SDS011;2228;48.140;11.488;2022-12-13T14:41:27;25.05;;;11.57;;
4430;SDS011;2228;48.140;11.488;2022-12-13T14:43:54;21.60;;;11.53;;
4430;SDS011;2228;48.140;11.488;2022-12-13T14:46:46;27.88;;;12.85;;
4430;SDS011;2228;48.140;11.488;2022-12-13T14:49:14;26.58;;;12.13;;
4430;SDS011;2228;48.140;11.488;2022-12-13T14:51:42;34.45;;;13.02;;
4430;SDS011;2228;48.140;11.488;2022-12-13T14:54:16;36.00;;;14.55;;
4430;SDS011;2228;48.140;11.488;2022-12-13T14:56:56;26.80;;;13.90;;
4430;SDS011;2228;48.140;11.488;2022-12-13T14:59:24;29.70;;;13.43;;
4430;SDS011;2228;48.140;11.488;2022-12-13T15:01:53;29.52;;;13.05;;
4430;SDS011;2228;48.140;11.488;2022-12-13T15:04:24;32.78;;;13.88;;
4430;SDS011;2228;48.140;11.488;2022-12-13T15:06:54;30.38;;;15.15;;
4430;SDS011;2228;48.140;11.488;2022-12-13T15:09:28;37.35;;;14.65;;
4430;SDS011;2228;48.140;11.488;2022-12-13T15:11:56;36.38;;;15.10;;
4430;SDS011;2228;48.140;11.488;2022-12-13T15:14:24;34.90;;;15.57;;
4430;SDS011;2228;48.140;11.488;2022-12-13T15:16:52;29.20;;;14.65;;
4430;SDS011;2228;48.140;11.488;2022-12-13T15:19:21;40.08;;;16.45;;
4430;SDS011;2228;48.140;11.488;2022-12-13T15:21:53;35.22;;;14.70;;
4430;SDS011;2228;48.140;11.488;2022-12-13T15:24:23;31.48;;;15.40;;
4430;SDS011;2228;48.140;11.488;2022-12-13T15:26:56;37.30;;;15.48;;
4430;SDS011;2228;48.140;11.488;2022-12-13T15:29:25;37.92;;;15.88;;
4430;SDS011;2228;48.140;11.488;2022-12-13T15:31:54;36.72;;;16.20;;
4430;SDS011;2228;48.140;11.488;2022-12-13T15:34:29;32.50;;;16.08;;
4430;SDS011;2228;48.140;11.488;2022-12-13T15:37:00;34.30;;;16.25;;
4430;SDS011;2228;48.140;11.488;2022-12-13T15:39:29;36.05;;;17.60;;
4430;SDS011;2228;48.140;11.488;2022-12-13T15:42:03;30.00;;;15.88;;
4430;SDS011;2228;48.140;11.488;2022-12-13T15:44:32;33.55;;;15.40;;
4430;SDS011;2228;48.140;11.488;2022-12-13T15:47:05;29.45;;;14.77;;
4430;SDS011;2228;48.140;11.488;2022-12-13T15:49:37;29.93;;;14.30;;
4430;SDS011;2228;48.140;11.488;2022-12-13T15:52:21;27.77;;;14.50;;
4430;SDS011;2228;48.140;11.488;2022-12-13T15:54:54;29.35;;;14.10;;
4430;SDS011;2228;48.140;11.488;2022-12-13T15:57:24;30.50;;;13.27;;
4430;SDS011;2228;48.140;11.488;2022-12-13T16:00:06;28.13;;;12.75;;
4430;SDS011;2228;48.140;11.488;2022-12-13T16:02:46;31.05;;;14.65;;
4430;SDS011;2228;48.140;11.488;2022-12-13T16:05:21;30.33;;;13.27;;
4430;SDS011;2228;48.140;11.488;2022-12-13T16:07:51;28.98;;;13.98;;
4430;SDS011;2228;48.140;11.488;2022-12-13T16:10:20;28.85;;;14.02;;
4430;SDS011;2228;48.140;11.488;2022-12-13T16:12:50;25.35;;;12.80;;
4430;SDS011;2228;48.140;11.488;2022-12-13T16:15:20;26.33;;;13.80;;